Time,TemperatureF,DewpointF,PressureIn,WindDirection,WindDirectionDegrees,WindSpeedMPH,WindSpeedGustMPH,Humidity,HourlyPrecipIn,Conditions,Clouds,dailyrainin,SoftwareType,DateUTC
2013-02-05 00:05:00,23.7,14.7,30.31,ESE,104,1.0,5.0,68,0.00,,,0.00,Wunderground v.1.15,2013-02-05 07:05:00,
2013-02-05 00:10:00,22.9,13.6,30.30,SE,127,2.0,5.0,67,0.00,,,0.00,Wunderground v.1.15,2013-02-05 07:10:00,
2013-02-05 00:15:00,22.5,14.2,30.31,SE,127,2.0,2.0,70,0.00,,,0.00,Wunderground v.1.15,2013-02-05 07:15:00,
2013-02-05 00:20:00,22.3,14.0,30.31,SE,127,0.0,2.0,70,0.00,,,0.00,Wunderground v.1.15,2013-02-05 07:20:00,
2013-02-05 00:30:00,21.9,13.9,30.31,SE,126,0.0,0.0,71,0.00,,,0.00,Wunderground v.1.15,2013-02-05 07:30:00,
2013-02-05 00:35:00,21.7,14.1,30.31,SE,127,0.0,1.0,72,0.00,,,0.00,Wunderground v.1.15,2013-02-05 07:35:00,
2013-02-05 00:40:00,21.5,13.9,30.31,SE,127,0.0,1.0,72,0.00,,,0.00,Wunderground v.1.15,2013-02-05 07:40:00,
2013-02-05 00:45:00,21.3,14.3,30.31,SE,127,0.0,1.0,74,0.00,,,0.00,Wunderground v.1.15,2013-02-05 07:45:00,
2013-02-05 00:50:00,21.6,14.6,30.31,SE,127,0.0,1.0,74,0.00,,,0.00,Wunderground v.1.15,2013-02-05 07:50:00,
2013-02-05 00:55:00,21.9,15.2,30.32,SE,126,0.0,0.0,75,0.00,,,0.00,Wunderground v.1.15,2013-02-05 07:55:00,
2013-02-05 01:00:00,22.1,14.4,30.32,SE,127,0.0,0.0,72,0.00,,,0.00,Wunderground v.1.15,2013-02-05 08:00:00,
2013-02-05 01:10:00,21.8,13.8,30.32,SE,127,0.0,1.0,71,0.00,,,0.00,Wunderground v.1.15,2013-02-05 08:10:00,
2013-02-05 01:15:00,21.6,13.3,30.32,SE,127,1.0,2.0,70,0.00,,,0.00,Wunderground v.1.15,2013-02-05 08:15:00,
2013-02-05 01:20:00,21.6,13.6,30.32,SE,126,1.0,1.0,71,0.00,,,0.00,Wunderground v.1.15,2013-02-05 08:20:00,
2013-02-05 01:25:00,21.8,13.8,30.32,SE,127,1.0,5.0,71,0.00,,,0.00,Wunderground v.1.15,2013-02-05 08:25:00,
2013-02-05 01:30:00,21.9,13.6,30.32,SE,126,1.0,1.0,70,0.00,,,0.00,Wunderground v.1.15,2013-02-05 08:30:00,
2013-02-05 01:35:00,21.7,13.1,30.32,SE,126,1.0,1.0,69,0.00,,,0.00,Wunderground v.1.15,2013-02-05 08:35:00,
2013-02-05 01:40:00,21.4,13.1,30.32,SE,127,1.0,1.0,70,0.00,,,0.00,Wunderground v.1.15,2013-02-05 08:40:00,
2013-02-05 01:50:00,21.4,13.1,30.32,ESE,122,1.0,2.0,70,0.00,,,0.00,Wunderground v.1.15,2013-02-05 08:50:00,
2013-02-05 01:55:00,21.5,12.9,30.32,ESE,120,2.0,2.0,69,0.00,,,0.00,Wunderground v.1.15,2013-02-05 08:55:00,
2013-02-05 02:01:00,21.4,12.5,30.33,ESE,121,2.0,2.0,68,0.00,,,0.00,Wunderground v.1.15,2013-02-05 09:01:00,
2013-02-05 02:05:00,21.3,12.7,30.32,ESE,114,2.0,6.0,69,0.00,,,0.00,Wunderground v.1.15,2013-02-05 09:05:00,
2013-02-05 02:10:00,21.4,12.8,30.33,ESE,114,1.0,6.0,69,0.00,,,0.00,Wunderground v.1.15,2013-02-05 09:10:00,
2013-02-05 02:15:00,21.4,12.8,30.32,ESE,117,1.0,2.0,69,0.00,,,0.00,Wunderground v.1.15,2013-02-05 09:15:00,
2013-02-05 02:20:00,21.4,12.8,30.32,ESE,117,1.0,2.0,69,0.00,,,0.00,Wunderground v.1.15,2013-02-05 09:20:00,
2013-02-05 02:30:00,21.3,12.7,30.32,ESE,117,1.0,3.0,69,0.00,,,0.00,Wunderground v.1.15,2013-02-05 09:30:00,
2013-02-05 02:35:00,20.8,11.6,30.32,SE,132,2.0,3.0,67,0.00,,,0.00,Wunderground v.1.15,2013-02-05 09:35:00,
2013-02-05 02:40:00,20.3,11.4,30.32,SE,133,2.0,3.0,68,0.00,,,0.00,Wunderground v.1.15,2013-02-05 09:40:00,
2013-02-05 02:45:00,20.0,11.1,30.32,SE,135,3.0,3.0,68,0.00,,,0.00,Wunderground v.1.15,2013-02-05 09:45:00,
2013-02-05 02:50:00,19.7,11.5,30.32,SE,134,2.0,3.0,70,0.00,,,0.00,Wunderground v.1.15,2013-02-05 09:50:00,
2013-02-05 02:55:00,19.7,11.5,30.32,SE,134,0.0,0.0,70,0.00,,,0.00,Wunderground v.1.15,2013-02-05 09:55:00,
2013-02-05 03:00:00,19.6,11.7,30.32,SE,134,0.0,0.0,71,0.00,,,0.00,Wunderground v.1.15,2013-02-05 10:00:00,
2013-02-05 03:05:00,19.5,11.6,30.32,SE,135,0.0,9.0,71,0.00,,,0.00,Wunderground v.1.15,2013-02-05 10:05:00,
2013-02-05 03:10:00,19.5,11.3,30.32,SE,135,0.0,0.0,70,0.00,,,0.00,Wunderground v.1.15,2013-02-05 10:10:00,
2013-02-05 03:15:00,19.7,11.8,30.32,SE,135,0.0,0.0,71,0.00,,,0.00,Wunderground v.1.15,2013-02-05 10:15:00,
2013-02-05 03:20:00,19.7,12.1,30.32,SE,135,0.0,0.0,72,0.00,,,0.00,Wunderground v.1.15,2013-02-05 10:20:00,
2013-02-05 03:25:00,19.4,11.5,30.32,SE,135,0.0,0.0,71,0.00,,,0.00,Wunderground v.1.15,2013-02-05 10:25:00,
2013-02-05 03:30:00,19.1,11.2,30.32,SE,135,0.0,0.0,71,0.00,,,0.00,Wunderground v.1.15,2013-02-05 10:30:00,
2013-02-05 03:40:00,19.7,11.5,30.32,SE,130,1.0,3.0,70,0.00,,,0.00,Wunderground v.1.15,2013-02-05 10:40:00,
2013-02-05 03:50:00,20.2,11.7,30.32,SE,129,1.0,1.0,69,0.00,,,0.00,Wunderground v.1.15,2013-02-05 10:50:00,
2013-02-05 04:00:00,20.4,11.8,30.32,SE,128,1.0,1.0,69,0.00,,,0.00,Wunderground v.1.15,2013-02-05 11:00:00,
2013-02-05 04:10:00,20.8,12.2,30.32,SE,128,0.0,0.0,69,0.00,,,0.00,Wunderground v.1.15,2013-02-05 11:10:00,
2013-02-05 04:15:00,20.8,11.9,30.32,SE,128,0.0,1.0,68,0.00,,,0.00,Wunderground v.1.15,2013-02-05 11:15:00,
2013-02-05 04:20:00,20.5,10.9,30.32,SE,128,1.0,2.0,66,0.00,,,0.00,Wunderground v.1.15,2013-02-05 11:20:00,
2013-02-05 04:25:00,20.2,11.0,30.32,SE,128,2.0,2.0,67,0.00,,,0.00,Wunderground v.1.15,2013-02-05 11:25:00,
2013-02-05 04:30:00,19.7,10.5,30.32,SE,128,2.0,2.0,67,0.00,,,0.00,Wunderground v.1.15,2013-02-05 11:30:00,
2013-02-05 04:35:00,19.5,10.6,30.32,SE,131,2.0,3.0,68,0.00,,,0.00,Wunderground v.1.15,2013-02-05 11:35:00,
2013-02-05 04:40:00,19.3,10.5,30.32,SE,131,2.0,2.0,68,0.00,,,0.00,Wunderground v.1.15,2013-02-05 11:40:00,
2013-02-05 04:50:00,18.6,9.8,30.33,SE,133,2.0,2.0,68,0.00,,,0.00,Wunderground v.1.15,2013-02-05 11:50:00,
2013-02-05 04:55:00,18.3,9.8,30.33,SE,133,2.0,2.0,69,0.00,,,0.00,Wunderground v.1.15,2013-02-05 11:55:00,
2013-02-05 05:00:00,18.1,9.6,30.32,SE,133,1.0,1.0,69,0.00,,,0.00,Wunderground v.1.15,2013-02-05 12:00:00,
2013-02-05 05:10:00,18.0,9.9,30.32,SE,133,1.0,1.0,70,0.00,,,0.00,Wunderground v.1.15,2013-02-05 12:10:00,
2013-02-05 05:20:00,18.5,10.7,30.32,SE,132,1.0,4.0,71,0.00,,,0.00,Wunderground v.1.15,2013-02-05 12:20:00,
2013-02-05 05:25:00,18.9,11.0,30.32,SE,132,1.0,4.0,71,0.00,,,0.00,Wunderground v.1.15,2013-02-05 12:25:00,
2013-02-05 05:30:00,19.4,11.2,30.32,SE,132,1.0,1.0,70,0.00,,,0.00,Wunderground v.1.15,2013-02-05 12:30:00,
2013-02-05 05:40:00,19.2,10.0,30.33,SE,132,1.0,1.0,67,0.00,,,0.00,Wunderground v.1.15,2013-02-05 12:40:00,
2013-02-05 05:45:00,19.0,10.2,30.33,SE,132,1.0,1.0,68,0.00,,,0.00,Wunderground v.1.15,2013-02-05 12:45:00,
2013-02-05 05:50:00,18.8,10.0,30.33,SE,132,0.0,0.0,68,0.00,,,0.00,Wunderground v.1.15,2013-02-05 12:50:00,
2013-02-05 06:05:00,18.2,10.1,30.33,SE,132,0.0,7.0,70,0.00,,,0.00,Wunderground v.1.15,2013-02-05 13:05:00,
2013-02-05 06:10:00,18.2,10.1,30.33,SE,132,0.0,7.0,70,0.00,,,0.00,Wunderground v.1.15,2013-02-05 13:10:00,
2013-02-05 06:20:00,18.2,9.7,30.34,SE,132,0.0,0.0,69,0.00,,,0.00,Wunderground v.1.15,2013-02-05 13:20:00,
2013-02-05 06:25:00,18.1,9.6,30.34,SE,132,1.0,1.0,69,0.00,,,0.00,Wunderground v.1.15,2013-02-05 13:25:00,
2013-02-05 06:30:00,18.0,9.5,30.34,SE,132,1.0,1.0,69,0.00,,,0.00,Wunderground v.1.15,2013-02-05 13:30:00,
2013-02-05 06:40:00,17.5,9.4,30.34,SE,132,0.0,1.0,70,0.00,,,0.00,Wunderground v.1.15,2013-02-05 13:40:00,
2013-02-05 06:45:00,17.3,9.2,30.34,SE,132,0.0,0.0,70,0.00,,,0.00,Wunderground v.1.15,2013-02-05 13:45:00,
2013-02-05 06:50:00,17.1,9.3,30.35,SE,132,0.0,0.0,71,0.00,,,0.00,Wunderground v.1.15,2013-02-05 13:50:00,
2013-02-05 06:55:00,16.9,9.1,30.35,SE,132,0.0,0.0,71,0.00,,,0.00,Wunderground v.1.15,2013-02-05 13:55:00,
2013-02-05 07:05:00,16.6,9.1,30.35,SE,132,0.0,5.0,72,0.00,,,0.00,Wunderground v.1.15,2013-02-05 14:05:00,
2013-02-05 07:10:00,16.2,9.1,30.35,SE,132,0.0,5.0,73,0.00,,,0.00,Wunderground v.1.15,2013-02-05 14:10:00,
2013-02-05 07:15:00,16.0,9.2,30.35,SE,132,0.0,0.0,74,0.00,,,0.00,Wunderground v.1.15,2013-02-05 14:15:00,
2013-02-05 07:20:00,15.9,9.4,30.35,SE,132,0.0,0.0,75,0.00,,,0.00,Wunderground v.1.15,2013-02-05 14:20:00,
2013-02-05 07:25:00,16.1,9.3,30.35,SE,132,0.0,0.0,74,0.00,,,0.00,Wunderground v.1.15,2013-02-05 14:25:00,
2013-02-05 07:30:00,16.4,9.6,30.36,SE,132,0.0,0.0,74,0.00,,,0.00,Wunderground v.1.15,2013-02-05 14:30:00,
2013-02-05 07:35:00,16.9,9.7,30.36,SE,132,0.0,0.0,73,0.00,,,0.00,Wunderground v.1.15,2013-02-05 14:35:00,
2013-02-05 07:40:00,17.2,9.7,30.36,SE,132,0.0,1.0,72,0.00,,,0.00,Wunderground v.1.15,2013-02-05 14:40:00,
2013-02-05 07:45:00,17.5,9.7,30.36,SE,132,0.0,0.0,71,0.00,,,0.00,Wunderground v.1.15,2013-02-05 14:45:00,
2013-02-05 07:50:00,17.9,9.8,30.36,SE,132,1.0,1.0,70,0.00,,,0.00,Wunderground v.1.15,2013-02-05 14:50:00,
2013-02-05 08:00:00,17.7,9.6,30.36,SE,132,0.0,0.0,70,0.00,,,0.00,Wunderground v.1.15,2013-02-05 15:00:00,
2013-02-05 08:05:00,17.7,9.6,30.36,SE,132,0.0,2.0,70,0.00,,,0.00,Wunderground v.1.15,2013-02-05 15:05:00,
2013-02-05 08:10:00,18.0,9.5,30.36,SE,132,1.0,1.0,69,0.00,,,0.00,Wunderground v.1.15,2013-02-05 15:10:00,
2013-02-05 08:15:00,18.4,9.9,30.36,SE,132,1.0,5.0,69,0.00,,,0.00,Wunderground v.1.15,2013-02-05 15:15:00,
2013-02-05 08:20:00,19.7,10.8,30.36,SE,132,1.0,1.0,68,0.00,,,0.00,Wunderground v.1.15,2013-02-05 15:20:00,
2013-02-05 08:30:00,22.0,11.0,30.34,SE,133,2.0,2.0,62,0.00,,,0.00,Wunderground v.1.15,2013-02-05 15:30:00,
2013-02-05 08:40:00,23.5,11.6,30.34,SSE,156,2.0,5.0,60,0.00,,,0.00,Wunderground v.1.15,2013-02-05 15:40:00,
2013-02-05 08:45:00,23.9,11.6,30.34,SSE,163,3.0,5.0,59,0.00,,,0.00,Wunderground v.1.15,2013-02-05 15:45:00,
2013-02-05 08:50:00,24.5,11.8,30.34,SSE,163,2.0,3.0,58,0.00,,,0.00,Wunderground v.1.15,2013-02-05 15:50:00,
2013-02-05 08:55:00,24.8,12.1,30.34,SSE,163,1.0,3.0,58,0.00,,,0.00,Wunderground v.1.15,2013-02-05 15:55:00,
2013-02-05 09:00:00,25.1,12.0,30.33,SSE,163,1.0,1.0,57,0.00,,,0.00,Wunderground v.1.15,2013-02-05 16:00:00,
2013-02-05 09:10:00,25.4,11.5,30.33,SSE,163,0.0,0.0,55,0.00,,,0.00,Wunderground v.1.15,2013-02-05 16:10:00,
2013-02-05 09:15:00,25.5,12.8,30.33,SSE,163,0.0,0.0,58,0.00,,,0.00,Wunderground v.1.15,2013-02-05 16:15:00,
2013-02-05 09:20:00,26.0,12.4,30.33,SSW,199,1.0,1.0,56,0.00,,,0.00,Wunderground v.1.15,2013-02-05 16:20:00,
2013-02-05 09:30:00,27.0,13.4,30.32,WSW,246,2.0,2.0,56,0.00,,,0.00,Wunderground v.1.15,2013-02-05 16:30:00,
2013-02-05 09:35:00,27.6,13.5,30.32,WSW,248,1.0,2.0,55,0.00,,,0.00,Wunderground v.1.15,2013-02-05 16:35:00,
2013-02-05 09:40:00,28.3,13.3,30.32,WSW,250,1.0,1.0,53,0.00,,,0.00,Wunderground v.1.15,2013-02-05 16:40:00,
2013-02-05 09:45:00,28.7,13.7,30.31,WSW,249,1.0,1.0,53,0.00,,,0.00,Wunderground v.1.15,2013-02-05 16:45:00,
2013-02-05 09:50:00,28.2,13.2,30.30,WSW,237,1.0,1.0,53,0.00,,,0.00,Wunderground v.1.15,2013-02-05 16:50:00,
2013-02-05 10:05:00,29.2,13.7,30.30,WNW,293,1.0,10.0,52,0.00,,,0.00,Wunderground v.1.15,2013-02-05 17:05:00,
2013-02-05 10:10:00,29.9,14.4,30.30,NW,321,2.0,10.0,52,0.00,,,0.00,Wunderground v.1.15,2013-02-05 17:10:00,
2013-02-05 10:20:00,31.1,14.6,30.29,NW,317,2.0,3.0,50,0.00,,,0.00,Wunderground v.1.15,2013-02-05 17:20:00,
2013-02-05 10:25:00,31.3,14.3,30.29,NW,317,2.0,2.0,49,0.00,,,0.00,Wunderground v.1.15,2013-02-05 17:25:00,
2013-02-05 10:30:00,31.5,14.5,30.30,NW,317,1.0,2.0,49,0.00,,,0.00,Wunderground v.1.15,2013-02-05 17:30:00,
2013-02-05 10:40:00,32.1,14.1,30.30,NW,322,3.0,5.0,47,0.00,,,0.00,Wunderground v.1.15,2013-02-05 17:40:00,
2013-02-05 10:45:00,32.0,14.5,30.30,NW,321,3.0,3.0,48,0.00,,,0.00,Wunderground v.1.15,2013-02-05 17:45:00,
2013-02-05 10:50:00,32.4,14.9,30.30,NW,317,2.0,3.0,48,0.00,,,0.00,Wunderground v.1.15,2013-02-05 17:50:00,
2013-02-05 10:55:00,33.0,14.9,30.29,NW,317,2.0,2.0,47,0.00,,,0.00,Wunderground v.1.15,2013-02-05 17:55:00,
2013-02-05 11:05:00,34.1,15.9,30.28,NW,324,3.0,3.0,47,0.00,,,0.00,Wunderground v.1.15,2013-02-05 18:05:00,
2013-02-05 11:10:00,34.9,16.7,30.28,NW,323,2.0,5.0,47,0.00,,,0.00,Wunderground v.1.15,2013-02-05 18:10:00,
2013-02-05 11:20:00,35.7,15.9,30.28,NNW,336,4.0,4.0,44,0.00,,,0.00,Wunderground v.1.15,2013-02-05 18:20:00,
2013-02-05 11:25:00,35.9,16.1,30.27,NNW,342,4.0,4.0,44,0.00,,,0.00,Wunderground v.1.15,2013-02-05 18:25:00,
2013-02-05 11:30:00,36.3,16.4,30.27,NNW,341,3.0,4.0,44,0.00,,,0.00,Wunderground v.1.15,2013-02-05 18:30:00,
2013-02-05 11:35:00,36.8,17.9,30.26,NNW,334,3.0,3.0,46,0.00,,,0.00,Wunderground v.1.15,2013-02-05 18:35:00,
2013-02-05 11:40:00,37.7,17.2,30.26,NNW,329,2.0,4.0,43,0.00,,,0.00,Wunderground v.1.15,2013-02-05 18:40:00,
2013-02-05 11:45:00,38.2,18.2,30.26,NW,318,2.0,2.0,44,0.00,,,0.00,Wunderground v.1.15,2013-02-05 18:45:00,
2013-02-05 11:50:00,38.4,17.8,30.26,NW,314,1.0,2.0,43,0.00,,,0.00,Wunderground v.1.15,2013-02-05 18:50:00,
2013-02-05 11:55:00,38.9,17.7,30.25,NW,311,1.0,2.0,42,0.00,,,0.00,Wunderground v.1.15,2013-02-05 18:55:00,
2013-02-05 12:05:00,39.5,17.7,30.25,NW,306,2.0,2.0,41,0.00,,,0.00,Wunderground v.1.15,2013-02-05 19:05:00,
2013-02-05 12:10:00,39.9,18.6,30.24,NW,306,1.0,2.0,42,0.00,,,0.00,Wunderground v.1.15,2013-02-05 19:10:00,
2013-02-05 12:15:00,40.5,18.0,30.24,NW,311,2.0,2.0,40,0.00,,,0.00,Wunderground v.1.15,2013-02-05 19:15:00,
2013-02-05 12:20:00,41.1,18.0,30.23,NW,316,2.0,5.0,39,0.00,,,0.00,Wunderground v.1.15,2013-02-05 19:20:00,
2013-02-05 12:25:00,41.4,17.7,30.23,NW,318,3.0,3.0,38,0.00,,,0.00,Wunderground v.1.15,2013-02-05 19:25:00,
2013-02-05 12:30:00,41.5,18.4,30.23,NW,319,2.0,3.0,39,0.00,,,0.00,Wunderground v.1.15,2013-02-05 19:30:00,
2013-02-05 12:40:00,43.0,18.5,30.22,NW,319,2.0,2.0,37,0.00,,,0.00,Wunderground v.1.15,2013-02-05 19:40:00,
2013-02-05 12:45:00,43.6,21.4,30.22,NW,319,2.0,2.0,41,0.00,,,0.00,Wunderground v.1.15,2013-02-05 19:45:00,
2013-02-05 12:50:00,44.2,20.2,30.21,NW,319,1.0,2.0,38,0.00,,,0.00,Wunderground v.1.15,2013-02-05 19:50:00,
2013-02-05 12:55:00,44.6,19.9,30.21,NW,318,1.0,2.0,37,0.00,,,0.00,Wunderground v.1.15,2013-02-05 19:55:00,
2013-02-05 13:00:00,43.8,18.5,30.21,NW,317,2.0,2.0,36,0.00,,,0.00,Wunderground v.1.15,2013-02-05 20:00:00,
2013-02-05 13:05:00,43.8,17.9,30.20,NW,317,2.0,9.0,35,0.00,,,0.00,Wunderground v.1.15,2013-02-05 20:05:00,
2013-02-05 13:10:00,44.2,18.2,30.20,NW,315,2.0,2.0,35,0.00,,,0.00,Wunderground v.1.15,2013-02-05 20:10:00,
2013-02-05 13:15:00,44.5,19.8,30.20,NW,315,1.0,2.0,37,0.00,,,0.00,Wunderground v.1.15,2013-02-05 20:15:00,
2013-02-05 13:20:00,45.0,17.6,30.20,NW,315,1.0,1.0,33,0.00,,,0.00,Wunderground v.1.15,2013-02-05 20:20:00,
2013-02-05 13:25:00,44.9,18.9,30.19,NW,315,1.0,2.0,35,0.00,,,0.00,Wunderground v.1.15,2013-02-05 20:25:00,
2013-02-05 13:30:00,45.2,17.0,30.19,NW,315,2.0,2.0,32,0.00,,,0.00,Wunderground v.1.15,2013-02-05 20:30:00,
2013-02-05 13:35:00,45.2,17.8,30.19,NW,315,1.0,2.0,33,0.00,,,0.00,Wunderground v.1.15,2013-02-05 20:35:00,
2013-02-05 13:40:00,45.0,18.3,30.18,NW,315,1.0,1.0,34,0.00,,,0.00,Wunderground v.1.15,2013-02-05 20:40:00,
2013-02-05 13:45:00,44.8,20.1,30.18,NW,309,2.0,3.0,37,0.00,,,0.00,Wunderground v.1.15,2013-02-05 20:45:00,
2013-02-05 13:50:00,45.0,18.3,30.17,NW,309,1.0,1.0,34,0.00,,,0.00,Wunderground v.1.15,2013-02-05 20:50:00,
2013-02-05 13:55:00,45.4,17.9,30.17,NW,309,1.0,1.0,33,0.00,,,0.00,Wunderground v.1.15,2013-02-05 20:55:00,
2013-02-05 14:00:00,45.4,18.6,30.17,WNW,284,1.0,2.0,34,0.00,,,0.00,Wunderground v.1.15,2013-02-05 21:00:00,
2013-02-05 14:10:00,45.9,19.1,30.17,West,280,1.0,1.0,34,0.00,,,0.00,Wunderground v.1.15,2013-02-05 21:10:00,
2013-02-05 14:15:00,45.4,17.9,30.16,West,272,2.0,2.0,33,0.00,,,0.00,Wunderground v.1.15,2013-02-05 21:15:00,
2013-02-05 14:20:00,45.6,19.5,30.17,West,268,2.0,2.0,35,0.00,,,0.00,Wunderground v.1.15,2013-02-05 21:20:00,
2013-02-05 14:30:00,46.3,17.3,30.15,West,261,1.0,4.0,31,0.00,,,0.00,Wunderground v.1.15,2013-02-05 21:30:00,
2013-02-05 14:35:00,45.5,18.0,30.15,West,261,1.0,4.0,33,0.00,,,0.00,Wunderground v.1.15,2013-02-05 21:35:00,
2013-02-05 14:40:00,46.1,18.6,30.14,West,261,1.0,3.0,33,0.00,,,0.00,Wunderground v.1.15,2013-02-05 21:40:00,
2013-02-05 14:45:00,46.8,20.6,30.14,West,261,1.0,3.0,35,0.00,,,0.00,Wunderground v.1.15,2013-02-05 21:45:00,
2013-02-05 14:50:00,47.5,19.1,30.14,West,261,2.0,2.0,32,0.00,,,0.00,Wunderground v.1.15,2013-02-05 21:50:00,
2013-02-05 14:55:00,48.1,18.8,30.14,West,260,2.0,2.0,31,0.00,,,0.00,Wunderground v.1.15,2013-02-05 21:55:00,
2013-02-05 15:05:00,48.8,20.9,30.14,West,261,1.0,5.0,33,0.00,,,0.00,Wunderground v.1.15,2013-02-05 22:05:00,
2013-02-05 15:10:00,48.9,18.8,30.14,West,260,1.0,5.0,30,0.00,,,0.00,Wunderground v.1.15,2013-02-05 22:10:00,
2013-02-05 15:15:00,49.0,20.4,30.13,West,260,1.0,1.0,32,0.00,,,0.00,Wunderground v.1.15,2013-02-05 22:15:00,
2013-02-05 15:20:00,48.7,20.1,30.13,West,261,1.0,1.0,32,0.00,,,0.00,Wunderground v.1.15,2013-02-05 22:20:00,
2013-02-05 15:25:00,48.3,19.0,30.13,West,261,2.0,2.0,31,0.00,,,0.00,Wunderground v.1.15,2013-02-05 22:25:00,
2013-02-05 15:30:00,48.1,19.6,30.13,West,261,1.0,2.0,32,0.00,,,0.00,Wunderground v.1.15,2013-02-05 22:30:00,
2013-02-05 15:40:00,48.7,19.4,30.13,West,260,1.0,1.0,31,0.00,,,0.00,Wunderground v.1.15,2013-02-05 22:40:00,
2013-02-05 15:50:00,48.5,19.2,30.13,West,259,1.0,2.0,31,0.00,,,0.00,Wunderground v.1.15,2013-02-05 22:50:00,
2013-02-05 15:55:00,49.0,20.4,30.12,West,259,0.0,0.0,32,0.00,,,0.00,Wunderground v.1.15,2013-02-05 22:55:00,
2013-02-05 16:00:00,49.0,21.1,30.12,WSW,258,1.0,2.0,33,0.00,,,0.00,Wunderground v.1.15,2013-02-05 23:00:00,
2013-02-05 16:05:00,48.8,18.7,30.12,WSW,258,2.0,5.0,30,0.00,,,0.00,Wunderground v.1.15,2013-02-05 23:05:00,
2013-02-05 16:10:00,48.5,19.9,30.12,WSW,257,2.0,2.0,32,0.00,,,0.00,Wunderground v.1.15,2013-02-05 23:10:00,
2013-02-05 16:15:00,48.6,19.3,30.11,WSW,257,1.0,2.0,31,0.00,,,0.00,Wunderground v.1.15,2013-02-05 23:15:00,
2013-02-05 16:20:00,48.7,18.6,30.11,WSW,257,1.0,2.0,30,0.00,,,0.00,Wunderground v.1.15,2013-02-05 23:20:00,
2013-02-05 16:30:00,48.7,20.1,30.11,WSW,257,1.0,2.0,32,0.00,,,0.00,Wunderground v.1.15,2013-02-05 23:30:00,
2013-02-05 16:35:00,48.4,19.1,30.11,WSW,257,1.0,2.0,31,0.00,,,0.00,Wunderground v.1.15,2013-02-05 23:35:00,
2013-02-05 16:40:00,48.6,19.3,30.10,WSW,257,1.0,1.0,31,0.00,,,0.00,Wunderground v.1.15,2013-02-05 23:40:00,
2013-02-05 16:50:00,49.4,20.0,30.10,WSW,257,0.0,1.0,31,0.00,,,0.00,Wunderground v.1.15,2013-02-05 23:50:00,
2013-02-05 16:55:00,49.8,21.1,30.10,WSW,257,0.0,1.0,32,0.00,,,0.00,Wunderground v.1.15,2013-02-05 23:55:00,
2013-02-05 17:00:00,50.2,19.9,30.10,WSW,257,0.0,0.0,30,0.00,,,0.00,Wunderground v.1.15,2013-02-06 00:00:00,
2013-02-05 17:10:00,49.2,19.8,30.10,WSW,257,0.0,0.0,31,0.00,,,0.00,Wunderground v.1.15,2013-02-06 00:10:00,
2013-02-05 17:15:00,48.3,19.8,30.10,WSW,257,0.0,0.0,32,0.00,,,0.00,Wunderground v.1.15,2013-02-06 00:15:00,
2013-02-05 17:20:00,46.9,20.6,30.10,WSW,257,0.0,0.0,35,0.00,,,0.00,Wunderground v.1.15,2013-02-06 00:20:00,
2013-02-05 17:25:00,45.5,20.7,30.10,WSW,257,0.0,0.0,37,0.00,,,0.00,Wunderground v.1.15,2013-02-06 00:25:00,
2013-02-05 17:30:00,43.8,19.2,30.10,WSW,257,0.0,0.0,37,0.00,,,0.00,Wunderground v.1.15,2013-02-06 00:30:00,
2013-02-05 17:35:00,42.6,19.3,30.10,WSW,257,0.0,0.0,39,0.00,,,0.00,Wunderground v.1.15,2013-02-06 00:35:00,
2013-02-05 17:40:00,41.3,17.6,30.10,WSW,257,0.0,0.0,38,0.00,,,0.00,Wunderground v.1.15,2013-02-06 00:40:00,
2013-02-05 17:45:00,40.5,20.3,30.10,WSW,257,0.0,0.0,44,0.00,,,0.00,Wunderground v.1.15,2013-02-06 00:45:00,
2013-02-05 17:50:00,39.5,20.4,30.10,WSW,257,0.0,0.0,46,0.00,,,0.00,Wunderground v.1.15,2013-02-06 00:50:00,
2013-02-05 17:55:00,38.8,20.3,30.10,WSW,257,0.0,0.0,47,0.00,,,0.00,Wunderground v.1.15,2013-02-06 00:55:00,
2013-02-05 18:00:00,37.9,21.4,30.11,WSW,257,0.0,4.0,51,0.00,,,0.00,Wunderground v.1.15,2013-02-06 01:00:00,
2013-02-05 18:10:00,36.5,20.5,30.11,WSW,257,0.0,4.0,52,0.00,,,0.00,Wunderground v.1.15,2013-02-06 01:10:00,
2013-02-05 18:15:00,36.0,19.6,30.11,WSW,257,0.0,0.0,51,0.00,,,0.00,Wunderground v.1.15,2013-02-06 01:15:00,
2013-02-05 18:20:00,35.5,19.6,30.11,WSW,257,0.0,0.0,52,0.00,,,0.00,Wunderground v.1.15,2013-02-06 01:20:00,
2013-02-05 18:25:00,35.3,19.4,30.11,WSW,257,0.0,0.0,52,0.00,,,0.00,Wunderground v.1.15,2013-02-06 01:25:00,
2013-02-05 18:30:00,35.2,19.3,30.11,WSW,257,0.0,0.0,52,0.00,,,0.00,Wunderground v.1.15,2013-02-06 01:30:00,
2013-02-05 18:40:00,35.5,19.6,30.11,WSW,256,1.0,2.0,52,0.00,,,0.00,Wunderground v.1.15,2013-02-06 01:40:00,
2013-02-05 18:45:00,35.7,19.3,30.11,WSW,257,1.0,1.0,51,0.00,,,0.00,Wunderground v.1.15,2013-02-06 01:45:00,
2013-02-05 18:50:00,35.9,19.0,30.11,WSW,255,0.0,1.0,50,0.00,,,0.00,Wunderground v.1.15,2013-02-06 01:50:00,
2013-02-05 18:55:00,36.1,20.2,30.11,WSW,251,1.0,4.0,52,0.00,,,0.00,Wunderground v.1.15,2013-02-06 01:55:00,
2013-02-05 19:00:00,36.2,20.2,30.11,SSE,152,1.0,5.0,52,0.00,,,0.00,Wunderground v.1.15,2013-02-06 02:00:00,
2013-02-05 19:05:00,36.3,20.8,30.11,ESE,107,2.0,5.0,53,0.00,,,0.00,Wunderground v.1.15,2013-02-06 02:05:00,
2013-02-05 19:10:00,36.3,20.8,30.11,ESE,107,2.0,2.0,53,0.00,,,0.00,Wunderground v.1.15,2013-02-06 02:10:00,
2013-02-05 19:20:00,36.1,21.9,30.11,ESE,107,0.0,0.0,56,0.00,,,0.00,Wunderground v.1.15,2013-02-06 02:20:00,
2013-02-05 19:25:00,35.9,21.3,30.11,ESE,108,0.0,2.0,55,0.00,,,0.00,Wunderground v.1.15,2013-02-06 02:25:00,
2013-02-05 19:30:00,35.4,21.2,30.11,ESE,115,1.0,2.0,56,0.00,,,0.00,Wunderground v.1.15,2013-02-06 02:30:00,
2013-02-05 19:40:00,35.0,21.3,30.11,ESE,115,1.0,1.0,57,0.00,,,0.00,Wunderground v.1.15,2013-02-06 02:40:00,
2013-02-05 19:45:00,35.0,21.3,30.11,ESE,115,0.0,1.0,57,0.00,,,0.00,Wunderground v.1.15,2013-02-06 02:45:00,
2013-02-05 19:50:00,35.0,21.7,30.11,ESE,115,0.0,0.0,58,0.00,,,0.00,Wunderground v.1.15,2013-02-06 02:50:00,
2013-02-05 19:55:00,34.8,21.5,30.11,ESE,115,0.0,2.0,58,0.00,,,0.00,Wunderground v.1.15,2013-02-06 02:55:00,
2013-02-05 20:05:00,34.4,21.5,30.10,ESE,115,1.0,1.0,59,0.00,,,0.00,Wunderground v.1.15,2013-02-06 03:05:00,
2013-02-05 20:10:00,34.4,21.5,30.11,ESE,114,1.0,1.0,59,0.00,,,0.00,Wunderground v.1.15,2013-02-06 03:10:00,
2013-02-05 20:14:00,34.1,21.3,30.10,ESE,115,1.0,1.0,59,0.00,,,0.00,Wunderground v.1.15,2013-02-06 03:14:00,
2013-02-05 20:20:00,33.9,21.5,30.10,ESE,115,1.0,3.0,60,0.00,,,0.00,Wunderground v.1.15,2013-02-06 03:20:00,
2013-02-05 20:30:00,33.6,21.2,30.10,ESE,114,1.0,3.0,60,0.00,,,0.00,Wunderground v.1.15,2013-02-06 03:30:00,
2013-02-05 20:35:00,33.7,21.3,30.10,ESE,113,1.0,1.0,60,0.00,,,0.00,Wunderground v.1.15,2013-02-06 03:35:00,
2013-02-05 20:40:00,33.7,21.3,30.10,ESE,113,2.0,2.0,60,0.00,,,0.00,Wunderground v.1.15,2013-02-06 03:40:00,
2013-02-05 20:50:00,33.7,21.3,30.10,ESE,109,3.0,5.0,60,0.00,,,0.00,Wunderground v.1.15,2013-02-06 03:50:00,
2013-02-05 20:55:00,33.6,21.6,30.10,ESE,111,3.0,3.0,61,0.00,,,0.00,Wunderground v.1.15,2013-02-06 03:55:00,
2013-02-05 21:00:00,33.6,21.6,30.09,ESE,116,3.0,3.0,61,0.00,,,0.00,Wunderground v.1.15,2013-02-06 04:00:00,
2013-02-05 21:05:00,33.6,21.2,30.09,ESE,114,3.0,9.0,60,0.00,,,0.00,Wunderground v.1.15,2013-02-06 04:05:00,
2013-02-05 21:10:00,33.5,21.1,30.09,ESE,102,2.0,2.0,60,0.00,,,0.00,Wunderground v.1.15,2013-02-06 04:10:00,
2013-02-05 21:15:00,33.3,21.7,30.09,ESE,119,2.0,3.0,62,0.00,,,0.00,Wunderground v.1.15,2013-02-06 04:15:00,
2013-02-05 21:20:00,33.0,21.4,30.09,ESE,114,2.0,5.0,62,0.00,,,0.00,Wunderground v.1.15,2013-02-06 04:20:00,
2013-02-05 21:25:00,32.9,21.3,30.09,ESE,117,2.0,5.0,62,0.00,,,0.00,Wunderground v.1.15,2013-02-06 04:25:00,
2013-02-05 21:30:00,32.7,21.9,30.09,ESE,121,1.0,1.0,64,0.00,,,0.00,Wunderground v.1.15,2013-02-06 04:30:00,
2013-02-05 21:35:00,32.6,20.6,30.09,ESE,120,1.0,1.0,61,0.00,,,0.00,Wunderground v.1.15,2013-02-06 04:35:00,
2013-02-05 21:40:00,32.1,20.5,30.09,ESE,119,1.0,1.0,62,0.00,,,0.00,Wunderground v.1.15,2013-02-06 04:40:00,
2013-02-05 21:50:00,31.1,20.0,30.10,ESE,120,1.0,1.0,63,0.00,,,0.00,Wunderground v.1.15,2013-02-06 04:50:00,
2013-02-05 22:05:00,29.9,20.6,30.10,ESE,120,0.0,12.0,68,0.00,,,0.00,Wunderground v.1.15,2013-02-06 05:05:00,
2013-02-05 22:10:00,29.8,20.5,30.10,ESE,119,0.0,12.0,68,0.00,,,0.00,Wunderground v.1.15,2013-02-06 05:10:00,
2013-02-05 22:15:00,29.6,20.3,30.10,ESE,120,0.0,0.0,68,0.00,,,0.00,Wunderground v.1.15,2013-02-06 05:15:00,
2013-02-05 22:20:00,29.5,20.6,30.09,ESE,120,0.0,1.0,69,0.00,,,0.00,Wunderground v.1.15,2013-02-06 05:20:00,
2013-02-05 22:25:00,29.4,20.1,30.10,ESE,119,0.0,0.0,68,0.00,,,0.00,Wunderground v.1.15,2013-02-06 05:25:00,
2013-02-05 22:30:00,29.5,20.2,30.10,ESE,120,1.0,1.0,68,0.00,,,0.00,Wunderground v.1.15,2013-02-06 05:30:00,
2013-02-05 22:35:00,29.4,20.1,30.10,ESE,120,0.0,0.0,68,0.00,,,0.00,Wunderground v.1.15,2013-02-06 05:35:00,
2013-02-05 22:40:00,29.4,20.5,30.09,ESE,119,0.0,0.0,69,0.00,,,0.00,Wunderground v.1.15,2013-02-06 05:40:00,
2013-02-05 22:45:00,29.4,20.5,30.09,ESE,119,0.0,0.0,69,0.00,,,0.00,Wunderground v.1.15,2013-02-06 05:45:00,
2013-02-05 22:50:00,29.2,19.9,30.10,ESE,120,0.0,0.0,68,0.00,,,0.00,Wunderground v.1.15,2013-02-06 05:50:00,
2013-02-05 22:55:00,28.9,19.7,30.10,ESE,119,0.0,0.0,68,0.00,,,0.00,Wunderground v.1.15,2013-02-06 05:55:00,
2013-02-05 23:00:00,28.4,19.2,30.09,ESE,120,0.0,8.0,68,0.00,,,0.00,Wunderground v.1.15,2013-02-06 06:00:00,
2013-02-05 23:10:00,27.5,19.0,30.10,ESE,120,0.0,8.0,70,0.00,,,0.00,Wunderground v.1.15,2013-02-06 06:10:00,
2013-02-05 23:15:00,27.3,19.1,30.09,ESE,120,0.0,0.0,71,0.00,,,0.00,Wunderground v.1.15,2013-02-06 06:15:00,
2013-02-05 23:20:00,27.2,19.4,30.09,ESE,120,0.0,0.0,72,0.00,,,0.00,Wunderground v.1.15,2013-02-06 06:20:00,
2013-02-05 23:25:00,27.2,19.7,30.09,ESE,119,0.0,0.0,73,0.00,,,0.00,Wunderground v.1.15,2013-02-06 06:25:00,
2013-02-05 23:30:00,27.2,19.7,30.09,ESE,120,0.0,0.0,73,0.00,,,0.00,Wunderground v.1.15,2013-02-06 06:30:00,
2013-02-05 23:35:00,27.3,19.8,30.09,ESE,120,0.0,0.0,73,0.00,,,0.00,Wunderground v.1.15,2013-02-06 06:35:00,
2013-02-05 23:40:00,27.5,19.7,30.09,ESE,119,0.0,0.0,72,0.00,,,0.00,Wunderground v.1.15,2013-02-06 06:40:00,
2013-02-05 23:50:00,27.9,19.7,30.09,ESE,120,0.0,1.0,71,0.00,,,0.00,Wunderground v.1.15,2013-02-06 06:50:00,
2013-02-05 23:55:00,28.0,19.8,30.09,ESE,120,0.0,0.0,71,0.00,,,0.00,Wunderground v.1.15,2013-02-06 06:55:00,